ROI756 SVMG-SVMI
Flight info
| Callsign | ROI756 |
|---|---|
| Flight time | 0h 44m |
| Altitude | 26000 |
| Route | ESPEP ESPEP DCT SARNI DCT CBC NETSI1 |
| Aircraft | B737/M-SDE2E3FGHIRWXY/LB1 |
Departure
| Time | 2026-04-25 11:03 |
|---|---|
| Airport | Del Caribe Santiago Mariño International Airport (SVMG) |
Arrival
| Time | 2026-04-25 11:47 |
|---|---|
| Airport | Maiquetía Simón Bolívar International Airport (SVMI) |
| Time | Latitude | Longitude | Altitude | Speed | Heading |
|---|---|---|---|---|---|
| 2026-04-25 10:42 | 10.91590 | -63.96870 | 50 ft | 0 kts | 348° |
| 2026-04-25 10:48 | 10.91569 | -63.96865 | 51 ft | 4 kts | 341° |
| 2026-04-25 10:48 | 10.91544 | -63.96855 | 50 ft | 4 kts | 328° |
| 2026-04-25 10:48 | 10.91524 | -63.96838 | 52 ft | 4 kts | 300° |
| 2026-04-25 10:49 | 10.91519 | -63.96819 | 47 ft | 1 kts | 258° |
| 2026-04-25 10:51 | 10.91517 | -63.96828 | 53 ft | 3 kts | 258° |
| 2026-04-25 10:51 | 10.91509 | -63.96865 | 53 ft | 8 kts | 258° |
| 2026-04-25 10:52 | 10.91495 | -63.96936 | 50 ft | 13 kts | 258° |
| 2026-04-25 10:52 | 10.91437 | -63.97012 | 53 ft | 16 kts | 185° |
| 2026-04-25 10:52 | 10.91351 | -63.97060 | 54 ft | 16 kts | 259° |
| 2026-04-25 10:52 | 10.91331 | -63.97170 | 53 ft | 16 kts | 259° |
| 2026-04-25 10:53 | 10.91309 | -63.97276 | 55 ft | 15 kts | 258° |
| 2026-04-25 10:53 | 10.91289 | -63.97377 | 54 ft | 14 kts | 258° |
| 2026-04-25 10:53 | 10.91268 | -63.97474 | 55 ft | 14 kts | 258° |
| 2026-04-25 10:53 | 10.91249 | -63.97567 | 58 ft | 13 kts | 258° |
| 2026-04-25 10:54 | 10.91231 | -63.97656 | 61 ft | 13 kts | 258° |
| 2026-04-25 10:54 | 10.91218 | -63.97715 | 63 ft | 13 kts | 258° |
| 2026-04-25 10:54 | 10.91195 | -63.97828 | 68 ft | 12 kts | 258° |
| 2026-04-25 10:54 | 10.91178 | -63.97910 | 63 ft | 12 kts | 258° |
| 2026-04-25 10:55 | 10.91161 | -63.97991 | 72 ft | 11 kts | 258° |
| 2026-04-25 10:55 | 10.91144 | -63.98069 | 87 ft | 11 kts | 258° |
| 2026-04-25 10:55 | 10.91111 | -63.98133 | 88 ft | 11 kts | 191° |
| 2026-04-25 10:55 | 10.91038 | -63.98111 | 79 ft | 0 kts | 146° |
| 2026-04-25 11:01 | 10.91026 | -63.98102 | 76 ft | 9 kts | 146° |
| 2026-04-25 11:02 | 10.90987 | -63.98030 | 71 ft | 15 kts | 90° |
| 2026-04-25 11:02 | 10.91019 | -63.97853 | 73 ft | 55 kts | 78° |
| 2026-04-25 11:02 | 10.91149 | -63.97215 | 62 ft | 126 kts | 78° |
| 2026-04-25 11:02 | 10.91356 | -63.96165 | 145 ft | 171 kts | 79° |
| 2026-04-25 11:03 | 10.91591 | -63.94932 | 739 ft | 185 kts | 79° |
| 2026-04-25 11:03 | 10.91842 | -63.93711 | 1744 ft | 169 kts | 81° |
| 2026-04-25 11:03 | 10.92086 | -63.92499 | 2401 ft | 186 kts | 81° |
| 2026-04-25 11:03 | 10.92278 | -63.91094 | 2659 ft | 214 kts | 96° |
| 2026-04-25 11:04 | 10.91850 | -63.89585 | 3102 ft | 230 kts | 117° |
| 2026-04-25 11:04 | 10.90831 | -63.88224 | 3497 ft | 254 kts | 140° |
| 2026-04-25 11:04 | 10.89267 | -63.87358 | 4304 ft | 262 kts | 163° |
| 2026-04-25 11:04 | 10.88067 | -63.87194 | 4924 ft | 265 kts | 180° |
| 2026-04-25 11:05 | 10.85739 | -63.88070 | 6053 ft | 279 kts | 219° |
| 2026-04-25 11:05 | 10.84477 | -63.89589 | 6970 ft | 283 kts | 233° |
| 2026-04-25 11:05 | 10.83349 | -63.91247 | 7885 ft | 287 kts | 234° |
| 2026-04-25 11:05 | 10.82229 | -63.92946 | 8864 ft | 291 kts | 235° |
| 2026-04-25 11:06 | 10.81105 | -63.94669 | 9882 ft | 294 kts | 235° |
| 2026-04-25 11:06 | 10.79957 | -63.96430 | 10596 ft | 308 kts | 235° |
| 2026-04-25 11:06 | 10.78714 | -63.98333 | 10838 ft | 337 kts | 235° |
| 2026-04-25 11:06 | 10.77444 | -64.00400 | 11451 ft | 351 kts | 244° |
| 2026-04-25 11:07 | 10.76802 | -64.02804 | 12295 ft | 356 kts | 263° |
| 2026-04-25 11:07 | 10.76607 | -64.05317 | 13233 ft | 358 kts | 266° |
| 2026-04-25 11:07 | 10.76485 | -64.07864 | 14075 ft | 363 kts | 267° |
| 2026-04-25 11:07 | 10.76378 | -64.10443 | 14845 ft | 367 kts | 267° |
| 2026-04-25 11:08 | 10.76266 | -64.13049 | 15640 ft | 371 kts | 267° |
| 2026-04-25 11:08 | 10.76142 | -64.15681 | 16438 ft | 375 kts | 266° |
| 2026-04-25 11:08 | 10.76008 | -64.18342 | 17218 ft | 379 kts | 266° |
| 2026-04-25 11:08 | 10.75866 | -64.21032 | 17988 ft | 383 kts | 266° |
| 2026-04-25 11:09 | 10.75717 | -64.23754 | 18671 ft | 387 kts | 266° |
| 2026-04-25 11:09 | 10.75565 | -64.26500 | 19329 ft | 391 kts | 266° |
| 2026-04-25 11:09 | 10.75411 | -64.29271 | 19990 ft | 394 kts | 266° |
| 2026-04-25 11:09 | 10.75254 | -64.32063 | 20636 ft | 397 kts | 266° |
| 2026-04-25 11:10 | 10.75097 | -64.34878 | 21259 ft | 401 kts | 266° |
| 2026-04-25 11:10 | 10.75045 | -64.35799 | 21467 ft | 402 kts | 266° |
| 2026-04-25 11:10 | 10.74776 | -64.40581 | 22512 ft | 407 kts | 266° |
| 2026-04-25 11:10 | 10.74616 | -64.43425 | 23085 ft | 410 kts | 266° |
| 2026-04-25 11:11 | 10.74453 | -64.46330 | 23624 ft | 413 kts | 266° |
| 2026-04-25 11:11 | 10.74287 | -64.49261 | 24084 ft | 417 kts | 266° |
| 2026-04-25 11:11 | 10.74121 | -64.52212 | 24545 ft | 420 kts | 266° |
| 2026-04-25 11:11 | 10.73953 | -64.55183 | 25008 ft | 422 kts | 266° |
| 2026-04-25 11:12 | 10.73784 | -64.58164 | 25566 ft | 422 kts | 265° |
| 2026-04-25 11:12 | 10.73614 | -64.61146 | 25916 ft | 422 kts | 265° |
| 2026-04-25 11:12 | 10.73380 | -64.64085 | 25929 ft | 415 kts | 263° |
| 2026-04-25 11:12 | 10.73068 | -64.67003 | 25953 ft | 417 kts | 262° |
| 2026-04-25 11:13 | 10.72722 | -64.69949 | 25961 ft | 421 kts | 262° |
| 2026-04-25 11:13 | 10.72371 | -64.72897 | 25953 ft | 420 kts | 262° |
| 2026-04-25 11:13 | 10.72025 | -64.75839 | 25950 ft | 419 kts | 262° |
| 2026-04-25 11:13 | 10.71685 | -64.78779 | 25952 ft | 418 kts | 262° |
| 2026-04-25 11:14 | 10.71459 | -64.80762 | 25955 ft | 418 kts | 262° |
| 2026-04-25 11:14 | 10.71129 | -64.83695 | 25954 ft | 418 kts | 262° |
| 2026-04-25 11:14 | 10.70800 | -64.86632 | 25954 ft | 418 kts | 262° |
| 2026-04-25 11:14 | 10.70473 | -64.89566 | 25954 ft | 418 kts | 262° |
| 2026-04-25 11:15 | 10.70146 | -64.92502 | 25954 ft | 418 kts | 262° |
| 2026-04-25 11:15 | 10.69818 | -64.95441 | 25954 ft | 418 kts | 262° |
| 2026-04-25 11:15 | 10.69490 | -64.98383 | 25960 ft | 419 kts | 262° |
| 2026-04-25 11:15 | 10.69162 | -65.01322 | 25959 ft | 419 kts | 262° |
| 2026-04-25 11:16 | 10.68503 | -65.07208 | 25953 ft | 419 kts | 262° |
| 2026-04-25 11:16 | 10.68173 | -65.10155 | 25954 ft | 419 kts | 262° |
| 2026-04-25 11:16 | 10.67843 | -65.13100 | 25951 ft | 419 kts | 262° |
| 2026-04-25 11:17 | 10.67513 | -65.16042 | 25953 ft | 419 kts | 262° |
| 2026-04-25 11:17 | 10.67183 | -65.18983 | 25953 ft | 419 kts | 262° |
| 2026-04-25 11:17 | 10.66852 | -65.21926 | 25954 ft | 419 kts | 262° |
| 2026-04-25 11:17 | 10.66521 | -65.24869 | 25956 ft | 419 kts | 262° |
| 2026-04-25 11:18 | 10.66190 | -65.27812 | 25963 ft | 421 kts | 262° |
| 2026-04-25 11:18 | 10.65854 | -65.30791 | 26286 ft | 425 kts | 262° |
| 2026-04-25 11:18 | 10.65518 | -65.33769 | 26967 ft | 422 kts | 262° |
| 2026-04-25 11:18 | 10.65189 | -65.36686 | 27606 ft | 420 kts | 262° |
| 2026-04-25 11:19 | 10.64855 | -65.39640 | 27920 ft | 421 kts | 262° |
| 2026-04-25 11:19 | 10.64521 | -65.42594 | 27933 ft | 420 kts | 262° |
| 2026-04-25 11:19 | 10.64185 | -65.45569 | 27949 ft | 416 kts | 262° |
| 2026-04-25 11:19 | 10.63856 | -65.48477 | 27949 ft | 414 kts | 262° |
| 2026-04-25 11:20 | 10.63526 | -65.51385 | 27966 ft | 415 kts | 262° |
| 2026-04-25 11:20 | 10.63195 | -65.54302 | 27961 ft | 416 kts | 262° |
| 2026-04-25 11:20 | 10.62867 | -65.57187 | 27961 ft | 416 kts | 262° |
| 2026-04-25 11:20 | 10.62530 | -65.60149 | 27960 ft | 417 kts | 262° |
| 2026-04-25 11:21 | 10.62202 | -65.63038 | 27959 ft | 417 kts | 262° |
| 2026-04-25 11:21 | 10.61869 | -65.65964 | 27956 ft | 417 kts | 262° |
| 2026-04-25 11:21 | 10.61536 | -65.68886 | 27957 ft | 416 kts | 262° |
| 2026-04-25 11:21 | 10.61203 | -65.71808 | 27958 ft | 416 kts | 262° |
| 2026-04-25 11:22 | 10.60870 | -65.74724 | 27951 ft | 415 kts | 262° |
| 2026-04-25 11:22 | 10.60645 | -65.76694 | 27957 ft | 415 kts | 262° |
| 2026-04-25 11:22 | 10.60204 | -65.80549 | 27959 ft | 414 kts | 262° |
| 2026-04-25 11:22 | 10.59872 | -65.83457 | 27960 ft | 414 kts | 262° |
| 2026-04-25 11:23 | 10.59539 | -65.86364 | 27961 ft | 414 kts | 262° |
| 2026-04-25 11:23 | 10.59206 | -65.89270 | 27959 ft | 414 kts | 262° |
| 2026-04-25 11:23 | 10.58873 | -65.92172 | 27962 ft | 414 kts | 262° |
| 2026-04-25 11:23 | 10.58540 | -65.95079 | 27961 ft | 414 kts | 262° |
| 2026-04-25 11:24 | 10.58206 | -65.97985 | 27954 ft | 414 kts | 262° |
| 2026-04-25 11:24 | 10.57873 | -66.00888 | 27961 ft | 414 kts | 262° |
| 2026-04-25 11:24 | 10.57827 | -66.03804 | 27943 ft | 416 kts | 278° |
| 2026-04-25 11:24 | 10.58633 | -66.06629 | 27949 ft | 419 kts | 294° |
| 2026-04-25 11:25 | 10.60165 | -66.09149 | 27983 ft | 420 kts | 303° |
| 2026-04-25 11:25 | 10.61892 | -66.11550 | 27966 ft | 421 kts | 305° |
| 2026-04-25 11:25 | 10.63654 | -66.13933 | 27930 ft | 422 kts | 305° |
| 2026-04-25 11:25 | 10.65413 | -66.16331 | 27473 ft | 422 kts | 305° |
| 2026-04-25 11:26 | 10.67139 | -66.18728 | 26940 ft | 419 kts | 304° |
| 2026-04-25 11:26 | 10.68835 | -66.21113 | 26407 ft | 413 kts | 304° |
| 2026-04-25 11:26 | 10.70505 | -66.23473 | 25871 ft | 409 kts | 304° |
| 2026-04-25 11:26 | 10.72161 | -66.25813 | 25324 ft | 406 kts | 304° |
| 2026-04-25 11:27 | 10.73807 | -66.28126 | 24768 ft | 402 kts | 304° |
| 2026-04-25 11:27 | 10.75441 | -66.30421 | 24217 ft | 399 kts | 304° |
| 2026-04-25 11:27 | 10.77065 | -66.32701 | 23667 ft | 396 kts | 304° |
| 2026-04-25 11:27 | 10.78154 | -66.34232 | 23245 ft | 395 kts | 304° |
| 2026-04-25 11:28 | 10.80193 | -66.37258 | 22434 ft | 388 kts | 295° |
| 2026-04-25 11:28 | 10.81000 | -66.39844 | 21901 ft | 381 kts | 278° |
| 2026-04-25 11:28 | 10.81058 | -66.42514 | 21358 ft | 377 kts | 263° |
| 2026-04-25 11:28 | 10.80664 | -66.45129 | 20842 ft | 373 kts | 260° |
| 2026-04-25 11:29 | 10.80196 | -66.47708 | 20308 ft | 370 kts | 259° |
| 2026-04-25 11:29 | 10.79715 | -66.50267 | 19786 ft | 367 kts | 259° |
| 2026-04-25 11:29 | 10.79243 | -66.52811 | 19250 ft | 365 kts | 259° |
| 2026-04-25 11:29 | 10.78784 | -66.55345 | 18723 ft | 363 kts | 259° |
| 2026-04-25 11:30 | 10.78335 | -66.57867 | 18180 ft | 362 kts | 259° |
| 2026-04-25 11:30 | 10.77895 | -66.60374 | 17601 ft | 359 kts | 259° |
| 2026-04-25 11:30 | 10.77462 | -66.62860 | 17059 ft | 355 kts | 260° |
| 2026-04-25 11:30 | 10.77035 | -66.65326 | 16532 ft | 352 kts | 260° |
| 2026-04-25 11:31 | 10.76612 | -66.67767 | 16012 ft | 349 kts | 260° |
| 2026-04-25 11:31 | 10.76192 | -66.70188 | 15500 ft | 346 kts | 260° |
| 2026-04-25 11:31 | 10.75777 | -66.72587 | 14988 ft | 343 kts | 261° |
| 2026-04-25 11:31 | 10.75363 | -66.74972 | 14466 ft | 342 kts | 261° |
| 2026-04-25 11:32 | 10.74951 | -66.77348 | 13938 ft | 341 kts | 261° |
| 2026-04-25 11:32 | 10.74540 | -66.79717 | 13376 ft | 340 kts | 261° |
| 2026-04-25 11:32 | 10.74131 | -66.82075 | 12841 ft | 337 kts | 261° |
| 2026-04-25 11:32 | 10.73726 | -66.84412 | 12323 ft | 334 kts | 261° |
| 2026-04-25 11:33 | 10.73323 | -66.86731 | 11809 ft | 332 kts | 260° |
| 2026-04-25 11:33 | 10.72922 | -66.89034 | 11310 ft | 330 kts | 260° |
| 2026-04-25 11:33 | 10.72621 | -66.91334 | 10813 ft | 327 kts | 267° |
| 2026-04-25 11:33 | 10.72581 | -66.93634 | 10349 ft | 324 kts | 271° |
| 2026-04-25 11:34 | 10.72618 | -66.95874 | 10227 ft | 310 kts | 271° |
| 2026-04-25 11:34 | 10.72658 | -66.98022 | 10086 ft | 297 kts | 271° |
| 2026-04-25 11:34 | 10.72685 | -67.00086 | 9859 ft | 290 kts | 271° |
| 2026-04-25 11:34 | 10.72701 | -67.02130 | 9475 ft | 288 kts | 270° |
| 2026-04-25 11:35 | 10.72708 | -67.04156 | 9101 ft | 286 kts | 270° |
| 2026-04-25 11:35 | 10.72711 | -67.06168 | 8730 ft | 284 kts | 270° |
| 2026-04-25 11:35 | 10.72711 | -67.08166 | 8363 ft | 282 kts | 269° |
| 2026-04-25 11:35 | 10.72709 | -67.10154 | 8003 ft | 281 kts | 269° |
| 2026-04-25 11:36 | 10.72705 | -67.12135 | 7630 ft | 279 kts | 269° |
| 2026-04-25 11:36 | 10.72702 | -67.14104 | 7269 ft | 278 kts | 269° |
| 2026-04-25 11:36 | 10.72698 | -67.16067 | 6907 ft | 277 kts | 269° |
| 2026-04-25 11:36 | 10.72693 | -67.18024 | 6549 ft | 276 kts | 269° |
| 2026-04-25 11:37 | 10.72688 | -67.19976 | 6185 ft | 276 kts | 269° |
| 2026-04-25 11:37 | 10.72690 | -67.21921 | 5805 ft | 275 kts | 270° |
| 2026-04-25 11:37 | 10.72701 | -67.23860 | 5443 ft | 273 kts | 270° |
| 2026-04-25 11:37 | 10.72713 | -67.25785 | 5118 ft | 271 kts | 270° |
| 2026-04-25 11:38 | 10.72651 | -67.27666 | 5040 ft | 262 kts | 257° |
| 2026-04-25 11:38 | 10.71932 | -67.29290 | 5061 ft | 246 kts | 239° |
| 2026-04-25 11:38 | 10.71499 | -67.30957 | 5071 ft | 249 kts | 269° |
| 2026-04-25 11:38 | 10.71590 | -67.32721 | 5050 ft | 248 kts | 264° |
| 2026-04-25 11:39 | 10.70947 | -67.34233 | 5053 ft | 228 kts | 222° |
| 2026-04-25 11:39 | 10.69588 | -67.34856 | 4971 ft | 213 kts | 179° |
| 2026-04-25 11:39 | 10.68259 | -67.34359 | 4815 ft | 202 kts | 139° |
| 2026-04-25 11:39 | 10.67200 | -67.33505 | 4707 ft | 190 kts | 139° |
| 2026-04-25 11:40 | 10.66258 | -67.32585 | 4415 ft | 187 kts | 135° |
| 2026-04-25 11:40 | 10.65346 | -67.31644 | 4134 ft | 188 kts | 135° |
| 2026-04-25 11:40 | 10.64403 | -67.30687 | 4108 ft | 195 kts | 135° |
| 2026-04-25 11:40 | 10.63414 | -67.29701 | 4072 ft | 203 kts | 136° |
| 2026-04-25 11:41 | 10.62393 | -67.28695 | 4059 ft | 205 kts | 136° |
| 2026-04-25 11:41 | 10.61376 | -67.27696 | 4048 ft | 203 kts | 136° |
| 2026-04-25 11:41 | 10.60364 | -67.26706 | 4042 ft | 202 kts | 136° |
| 2026-04-25 11:41 | 10.59637 | -67.25509 | 4034 ft | 203 kts | 101° |
| 2026-04-25 11:42 | 10.59592 | -67.24080 | 4045 ft | 204 kts | 90° |
| 2026-04-25 11:42 | 10.59624 | -67.22637 | 4037 ft | 205 kts | 89° |
| 2026-04-25 11:42 | 10.59673 | -67.21191 | 4032 ft | 205 kts | 89° |
| 2026-04-25 11:42 | 10.59725 | -67.19721 | 3825 ft | 211 kts | 88° |
| 2026-04-25 11:43 | 10.59778 | -67.18235 | 3556 ft | 209 kts | 88° |
| 2026-04-25 11:43 | 10.59829 | -67.16771 | 3265 ft | 204 kts | 89° |
| 2026-04-25 11:43 | 10.59878 | -67.15380 | 2993 ft | 192 kts | 88° |
| 2026-04-25 11:43 | 10.59925 | -67.14048 | 2705 ft | 182 kts | 89° |
| 2026-04-25 11:44 | 10.59968 | -67.12810 | 2518 ft | 169 kts | 89° |
| 2026-04-25 11:44 | 10.60010 | -67.11628 | 2270 ft | 165 kts | 89° |
| 2026-04-25 11:44 | 10.60049 | -67.10527 | 2054 ft | 146 kts | 89° |
| 2026-04-25 11:44 | 10.60083 | -67.09551 | 1862 ft | 132 kts | 88° |
| 2026-04-25 11:45 | 10.60115 | -67.08632 | 1710 ft | 130 kts | 89° |
| 2026-04-25 11:45 | 10.60148 | -67.07716 | 1532 ft | 129 kts | 89° |
| 2026-04-25 11:45 | 10.60206 | -67.06809 | 1333 ft | 127 kts | 86° |
| 2026-04-25 11:45 | 10.60265 | -67.05903 | 1096 ft | 130 kts | 87° |
| 2026-04-25 11:46 | 10.60307 | -67.04998 | 897 ft | 126 kts | 89° |
| 2026-04-25 11:46 | 10.60323 | -67.04105 | 762 ft | 125 kts | 90° |
| 2026-04-25 11:46 | 10.60328 | -67.03217 | 660 ft | 127 kts | 90° |
| 2026-04-25 11:46 | 10.60351 | -67.02328 | 511 ft | 123 kts | 88° |
| 2026-04-25 11:47 | 10.60376 | -67.01445 | 329 ft | 126 kts | 89° |
| 2026-04-25 11:47 | 10.60402 | -67.00578 | 229 ft | 113 kts | 87° |
| 2026-04-25 11:47 | 10.60423 | -66.99907 | 216 ft | 77 kts | 88° |
| 2026-04-25 11:47 | 10.60435 | -66.99483 | 203 ft | 48 kts | 88° |
| 2026-04-25 11:48 | 10.60444 | -66.99197 | 202 ft | 22 kts | 88° |
| 2026-04-25 11:48 | 10.60405 | -66.99119 | 191 ft | 7 kts | 171° |
| 2026-04-25 11:48 | 10.60347 | -66.99117 | 188 ft | 10 kts | 178° |
| 2026-04-25 11:48 | 10.60285 | -66.99143 | 200 ft | 11 kts | 246° |
| 2026-04-25 11:49 | 10.60276 | -66.99217 | 201 ft | 10 kts | 268° |
| 2026-04-25 11:49 | 10.60274 | -66.99290 | 194 ft | 10 kts | 268° |
| 2026-04-25 11:49 | 10.60272 | -66.99361 | 209 ft | 10 kts | 268° |
| 2026-04-25 11:49 | 10.60270 | -66.99432 | 197 ft | 11 kts | 268° |
| 2026-04-25 11:50 | 10.60268 | -66.99512 | 200 ft | 12 kts | 268° |
| 2026-04-25 11:50 | 10.60264 | -66.99607 | 207 ft | 15 kts | 268° |
| 2026-04-25 11:50 | 10.60260 | -66.99716 | 205 ft | 16 kts | 268° |
| 2026-04-25 11:50 | 10.60256 | -66.99824 | 215 ft | 15 kts | 270° |
| 2026-04-25 11:51 | 10.60255 | -66.99927 | 215 ft | 14 kts | 269° |
| 2026-04-25 11:51 | 10.60253 | -67.00033 | 217 ft | 16 kts | 267° |
| 2026-04-25 11:51 | 10.60247 | -67.00156 | 218 ft | 19 kts | 268° |
| 2026-04-25 11:51 | 10.60228 | -67.00293 | 222 ft | 20 kts | 224° |
| 2026-04-25 11:52 | 10.60091 | -67.00298 | 224 ft | 21 kts | 179° |
| 2026-04-25 11:52 | 10.59951 | -67.00292 | 224 ft | 16 kts | 164° |
| 2026-04-25 11:52 | 10.59905 | -67.00206 | 222 ft | 10 kts | 99° |
| 2026-04-25 11:52 | 10.59846 | -67.00186 | 222 ft | 10 kts | 180° |
| 2026-04-25 11:53 | 10.59830 | -67.00186 | 222 ft | 0 kts | 179° |